旭川空港の過去48時間の天気

旭川空港 (Asahikawa (Civil))

現在時刻: 1/22 09:49 JST (1/22 00:49 UTC) 以下の時間は現地時間です。

過去48時間のMETAR気象情報
時間 風向 風速(m/s) 視程 気温(℃) 湿度(%) 気圧(hPa) 天気現象
22 09:00 南南東 6 8000m -4 86 1022 弱いしゅう雪
22 08:00 南南東 5 10km以上 -6 86 1022 弱いしゅう雪
22 07:00 南南東 5 10km以上 -7 86 1022
22 06:40 南南東 6 10km以上 -6 79 1022 弱いしゅう雪
21 20:00 不定 1 6000m -7 93 1021 弱いしゅう雪
21 19:27 北西 2 5000m -7 93 1020 弱いしゅう雪
21 19:13 西北西 2 3200m -7 93 1020 弱いしゅう雪
21 19:04 西北西 3 2300m -6 86 1020 弱いしゅう雪
21 19:00 西北西 3 4900m -6 86 1020 弱いしゅう雪
21 18:00 西北西 4 10km以上 -6 79 1019 弱いしゅう雪
21 17:00 西北西 6 10km以上 -6 86 1018 弱いしゅう雪
21 16:00 西北西 5 7000m -5 86 1016 弱いしゅう雪
21 15:46 西北西 5 5000m -6 93 1016 弱いしゅう雪
21 15:41 西北西 5 3200m -5 86 1016 弱いしゅう雪
21 15:27 西北西 4 4900m -5 86 1016 弱いしゅう雪
21 15:00 不定 1 8000m -5 79 1015 弱いしゅう雪
21 14:36 静穏 0 5000m -5 79 1015 弱いしゅう雪
21 14:08 不定 1 4900m -5 74 1014 弱いしゅう雪
21 14:00 不定 1 10km以上 -5 74 1014 弱いしゅう雪
21 13:00 不定 1 10km以上 -5 63 1014 周辺でしゅう雨
21 12:00 北北西 2 10km以上 -5 68 1014 弱いしゅう雪
21 11:00 3 10km以上 -5 68 1014 周辺でしゅう雨
21 10:00 北北西 3 10km以上 -7 86 1014
21 09:00 2 10km以上 -7 93 1013
21 08:00 3 10km以上 -7 93 1012
21 07:15 北北東 2 5000m -6 93 1011 弱いしゅう雪
21 07:00 2 4900m -6 93 1011 弱いしゅう雪
21 06:40 不定 1 5000m -6 93 1010 弱いしゅう雪
20 20:15 2 7000m -5 100 1007 弱いしゅう雪
20 20:00 南南西 2 5000m -4 93 1007 弱いしゅう雪
20 19:43 2 3200m -4 93 1007 弱いしゅう雪
20 19:13 南南東 2 3100m -4 93 1007 弱いしゅう雪
20 19:00 南南東 2 3500m -4 93 1007 弱いしゅう雪
20 18:35 南南東 2 3200m -5 100 1007 弱いしゅう雪
20 18:00 2 3100m -5 100 1006 弱いしゅう雪
20 17:23 南南西 2 3200m -5 93 1006 弱いしゅう雪
20 17:00 南西 1 3000m -5 100 1006 弱いしゅう雪
20 16:48 南西 1 3100m -5 93 1006 弱いしゅう雪
20 16:35 不定 1 5000m -4 93 1006 弱いしゅう雪
20 16:16 不定 1 3200m -5 93 1006 弱いしゅう雪
20 16:00 南南東 1 2000m -5 93 1006 弱いしゅう雪
20 15:00 不定 1 2000m -4 93 1006 弱いしゅう雪
20 14:25 不定 1 2000m -5 93 1006 弱いしゅう雪
20 14:21 不定 1 1500m -5 93 1005 弱いしゅう雪
20 14:04 北北東 2 1400m -5 93 1005 弱いしゅう雪
20 14:00 2 2300m -5 86 1005 弱いしゅう雪
20 13:40 2 2400m -5 86 1005 弱いしゅう雪
20 13:31 不定 1 1500m -5 86 1005 弱いしゅう雪
20 13:00 不定 1 1200m -6 93 1005 弱いしゅう雪
20 12:42 2 1400m -6 86 1005 弱いしゅう雪
20 12:35 2 2000m -6 86 1005 弱いしゅう雪
20 12:00 北北西 1 2500m -7 93 1006 弱いしゅう雪
20 11:32 北北西 2 2000m -7 93 1006 弱いしゅう雪
20 11:00 静穏 0 3000m -7 93 1007 弱いしゅう雪
20 10:00 不定 1 2000m -7 86 1007 弱いしゅう雪
RJEC 220000Z 16011KT 8000 -SHSN FEW010 SCT035 BKN045 M04/M06 Q1022
RJEC 212300Z 16010KT 9999 -SHSN FEW010 SCT035 BKN050 M06/M08 Q1022
RJEC 212200Z 15009KT 9999 R34/1300VP2000U FEW010 SCT020 BKN060 M07/M09 Q1022
RJEC 212140Z 16011KT 9999 R34/1000VP2000D -SHSN FEW010 SCT020 BKN050 M06/M09 Q1022 RMK 1ST010 3CU020 6CU050 A3021
RJEC 211100Z VRB01KT 6000 -SHSN FEW008 SCT015 BKN030 M07/M08 Q1021
RJEC 211027Z 31004KT 5000 -SHSN FEW008 SCT015 BKN035 M07/M08 Q1020 RMK 1ST008 3ST015 6CU035 A3014
RJEC 211013Z 30004KT 3200 R34/2000N -SHSN FEW005 SCT012 BKN030 M07/M08 Q1020 RMK 1ST005 4ST012 6CU030 A3013
RJEC 211004Z 30005KT 2300 R34/2000N -SHSN FEW005 SCT012 BKN030 M06/M08 Q1020 RMK 1ST005 4ST012 6CU030 A3013
RJEC 211000Z 30005KT 4900 R34/2000N -SHSN FEW005 SCT015 BKN035 M06/M08 Q1020
RJEC 210900Z 29007KT 9999 -SHSN FEW008 SCT020 BKN040 M06/M09 Q1019
RJEC 210800Z 29011KT 9999 -SHSN FEW008 SCT020 BKN040 M06/M08 Q1018
RJEC 210700Z 30009KT 7000 -SHSN FEW005 SCT018 BKN030 M05/M07 Q1016
RJEC 210646Z 29010KT 5000 -SHSN FEW005 SCT018 BKN030 M06/M07 Q1016 RMK 1ST005 3ST018 5CU030 A3002
RJEC 210641Z 29009KT 3200 R34/1300VP2000U -SHSN FEW005 SCT015 BKN025 M05/M07 Q1016 RMK 1ST005 3ST015 5CU025 A3001
RJEC 210627Z 30007KT 4900 -SHSN FEW008 SCT018 BKN030 M05/M07 Q1016 RMK 1ST008 3ST018 5CU030 A3000
RJEC 210600Z VRB01KT 8000 -SHSN FEW008 SCT020 BKN035 M05/M08 Q1015
RJEC 210536Z 00000KT 5000 -SHSN FEW008 SCT025 BKN035 M05/M08 Q1015 RMK 1ST008 4CU025 6CU035 A2998
RJEC 210508Z VRB02KT 4900 R34/1500VP2000N -SHSN FEW008 SCT025 BKN035 M05/M09 Q1014 RMK 1ST008 4CU025 6CU035 A2997 9999NE
RJEC 210500Z VRB02KT 9999 -SHSN FEW010 SCT025 BKN035 M05/M09 Q1014
RJEC 210400Z VRB02KT 9999 VCSH FEW015 BKN040 M05/M11 Q1014
RJEC 210300Z 34004KT 9999 -SHSN FEW015 BKN050 M05/M10 Q1014
RJEC 210200Z 35005KT 9999 VCSH FEW010 BKN045 M05/M10 Q1014
RJEC 210100Z 33006KT 9999 FEW010 SCT070 M07/M09 Q1014
RJEC 210000Z 35004KT 9999 FEW010 SCT070 M07/M08 Q1013
RJEC 202300Z 01005KT 9999 FEW008 SCT020 BKN070 M07/M08 Q1012
RJEC 202215Z 02003KT 5000 -SHSN FEW001 SCT010 BKN035 M06/M07 Q1011 RMK 1ST001 3ST010 6CU035 A2986
RJEC 202200Z 01003KT 4900 R34/2000N -SHSN FEW001 SCT010 BKN025 M06/M07 Q1011
RJEC 202140Z VRB01KT 5000 R34/1100VP2000D -SHSN FEW001 SCT010 BKN030 M06/M07 Q1010 RMK 1ST001 3ST010 5CU030 A2984
RJEC 201115Z 19004KT 7000 -SHSN FEW005 SCT009 BKN025 M05/M05 Q1007 RMK 1ST005 4ST009 6CU025 A2975
RJEC 201100Z 20003KT 5000 -SHSN FEW003 BKN009 BKN015 M04/M05 Q1007
RJEC 201043Z 18003KT 3200 -SHSN FEW003 SCT009 BKN015 M04/M05 Q1007 RMK 1ST003 4ST009 6ST015 A2975
RJEC 201013Z 15003KT 3100 -SHSN FEW005 SCT013 BKN020 M04/M05 Q1007 RMK 1ST005 4ST013 6CU020 A2974
RJEC 201000Z 16003KT 3500 -SHSN FEW005 SCT015 BKN020 M04/M05 Q1007
RJEC 200935Z 16003KT 3200 -SHSN FEW005 SCT020 BKN030 M05/M05 Q1007 RMK 1ST005 4CU020 6CU030 A2974
RJEC 200900Z 19003KT 3100 -SHSN FEW005 SCT020 BKN040 M05/M05 Q1006
RJEC 200823Z 21003KT 3200 -SHSN FEW005 SCT020 BKN030 M05/M06 Q1006 RMK 1ST005 4CU020 6CU030 A2972
RJEC 200800Z 23002KT 3000 -SHSN FEW005 SCT015 BKN025 M05/M05 Q1006
RJEC 200748Z 22002KT 3100 -SHSN FEW005 SCT015 BKN025 M05/M06 Q1006 RMK 1ST005 3ST015 5CU025 A2972
RJEC 200735Z VRB01KT 5000 -SHSN FEW005 SCT025 BKN045 M04/M05 Q1006 RMK 1ST005 3CU025 5CU045 A2972
RJEC 200716Z VRB02KT 3200 -SHSN FEW005 SCT030 BKN050 M05/M06 Q1006 RMK 1ST005 3CU030 5CU050 A2972
RJEC 200700Z 15002KT 2000 R34/1900N -SHSN FEW005 SCT030 BKN050 M05/M06 Q1006
RJEC 200600Z VRB01KT 2000 R34/2000U -SHSN FEW005 SCT015 BKN045 M04/M05 Q1006
RJEC 200525Z VRB02KT 2000 R34/1900U -SHSN FEW005 SCT015 BKN035 M05/M06 Q1006 RMK 1ST005 3ST015 5CU035 A2971
RJEC 200521Z VRB01KT 1500 R34/1300VP2000U -SHSN FEW005 SCT015 BKN030 M05/M06 Q1005 RMK 1ST005 3ST015 5CU030 A2970
RJEC 200504Z 02003KT 350V050 1400 R34/0750V1700N -SHSN FEW005 SCT015 BKN025 M05/M06 Q1005 RMK 1ST005 4ST015 6CU025 A2970
RJEC 200500Z 01003KT 330V030 2300 R34/0750VP2000D -SHSN FEW005 SCT015 BKN030 M05/M07 Q1005
RJEC 200440Z 01003KT 2400 R34/1800U -SHSN FEW005 SCT015 BKN035 M05/M07 Q1005 RMK 1ST005 3ST015 6CU035 A2969
RJEC 200431Z VRB02KT 1500 R34/1300V2000U -SHSN FEW005 SCT015 BKN030 M05/M07 Q1005 RMK 1ST005 3ST015 5CU030 A2969
RJEC 200400Z VRB02KT 1200 R34/1200D -SHSN FEW005 SCT015 BKN025 M06/M07 Q1005
RJEC 200342Z 36003KT 1400 R34/1200VP2000D -SHSN FEW005 SCT015 BKN030 M06/M08 Q1005 RMK 1ST005 4ST015 6CU030 A2970
RJEC 200335Z 35003KT 2000 R34/2000D -SHSN FEW005 SCT015 BKN030 M06/M08 Q1005 RMK 1ST005 4ST015 6CU030 A2970
RJEC 200300Z 34002KT 2500 -SHSN FEW005 SCT015 BKN035 M07/M08 Q1006
RJEC 200232Z 33003KT 320V020 2000 R34/2000N -SHSN FEW005 SCT015 BKN030 M07/M08 Q1006 RMK 1ST005 3ST015 5CU030 A2972
RJEC 200200Z 00000KT 3000 -SHSN FEW005 SCT015 BKN035 M07/M08 Q1007
RJEC 200100Z VRB01KT 2000 R34/1900U -SHSN FEW005 SCT015 BKN035 M07/M09 Q1007